sensor_id;sensor_type;location;lat;lon;timestamp;P1;durP1;ratioP1;P2;durP2;ratioP2
52320;SDS011;38261;54.090;13.382;2023-09-19T00:00:55;7.33;;;2.90;;
52320;SDS011;38261;54.090;13.382;2023-09-19T00:02:18;3.53;;;2.57;;
52320;SDS011;38261;54.090;13.382;2023-09-19T00:03:40;9.77;;;3.80;;
52320;SDS011;38261;54.090;13.382;2023-09-19T00:05:05;6.57;;;2.70;;
52320;SDS011;38261;54.090;13.382;2023-09-19T00:06:30;5.37;;;3.00;;
52320;SDS011;38261;54.090;13.382;2023-09-19T00:07:53;11.00;;;4.87;;
52320;SDS011;38261;54.090;13.382;2023-09-19T00:09:16;3.90;;;2.80;;
52320;SDS011;38261;54.090;13.382;2023-09-19T00:10:39;5.43;;;3.23;;
52320;SDS011;38261;54.090;13.382;2023-09-19T00:12:06;7.10;;;3.10;;
52320;SDS011;38261;54.090;13.382;2023-09-19T00:13:31;5.73;;;2.60;;
52320;SDS011;38261;54.090;13.382;2023-09-19T00:14:53;7.13;;;3.00;;
52320;SDS011;38261;54.090;13.382;2023-09-19T00:16:18;5.03;;;3.03;;
52320;SDS011;38261;54.090;13.382;2023-09-19T00:17:44;5.10;;;2.80;;
52320;SDS011;38261;54.090;13.382;2023-09-19T00:19:06;13.27;;;3.90;;
52320;SDS011;38261;54.090;13.382;2023-09-19T00:20:30;5.70;;;3.00;;
52320;SDS011;38261;54.090;13.382;2023-09-19T00:21:52;4.97;;;3.47;;
52320;SDS011;38261;54.090;13.382;2023-09-19T00:23:15;6.57;;;3.10;;
52320;SDS011;38261;54.090;13.382;2023-09-19T00:24:37;6.30;;;3.00;;
52320;SDS011;38261;54.090;13.382;2023-09-19T00:25:59;5.03;;;2.37;;
52320;SDS011;38261;54.090;13.382;2023-09-19T00:27:22;9.70;;;3.50;;
52320;SDS011;38261;54.090;13.382;2023-09-19T00:28:44;10.17;;;3.50;;
52320;SDS011;38261;54.090;13.382;2023-09-19T00:30:07;7.67;;;3.17;;
52320;SDS011;38261;54.090;13.382;2023-09-19T00:31:37;5.43;;;3.47;;
52320;SDS011;38261;54.090;13.382;2023-09-19T00:32:59;4.63;;;3.03;;
52320;SDS011;38261;54.090;13.382;2023-09-19T00:34:23;11.33;;;3.20;;
52320;SDS011;38261;54.090;13.382;2023-09-19T00:35:48;6.47;;;2.83;;
52320;SDS011;38261;54.090;13.382;2023-09-19T00:37:11;9.20;;;2.90;;
52320;SDS011;38261;54.090;13.382;2023-09-19T00:38:33;10.20;;;3.17;;
52320;SDS011;38261;54.090;13.382;2023-09-19T00:39:56;3.40;;;2.90;;
52320;SDS011;38261;54.090;13.382;2023-09-19T00:41:18;5.67;;;2.83;;
52320;SDS011;38261;54.090;13.382;2023-09-19T00:42:40;5.77;;;3.00;;
52320;SDS011;38261;54.090;13.382;2023-09-19T00:44:06;6.90;;;2.63;;
52320;SDS011;38261;54.090;13.382;2023-09-19T00:45:28;9.90;;;3.40;;
52320;SDS011;38261;54.090;13.382;2023-09-19T00:46:52;6.23;;;2.93;;
52320;SDS011;38261;54.090;13.382;2023-09-19T00:48:17;9.53;;;3.20;;
52320;SDS011;38261;54.090;13.382;2023-09-19T00:49:41;5.90;;;3.27;;
52320;SDS011;38261;54.090;13.382;2023-09-19T00:51:03;4.13;;;3.13;;
52320;SDS011;38261;54.090;13.382;2023-09-19T00:52:26;3.97;;;2.60;;
52320;SDS011;38261;54.090;13.382;2023-09-19T00:53:48;6.20;;;3.27;;
52320;SDS011;38261;54.090;13.382;2023-09-19T00:55:11;7.00;;;3.13;;
52320;SDS011;38261;54.090;13.382;2023-09-19T00:56:35;6.80;;;3.00;;
52320;SDS011;38261;54.090;13.382;2023-09-19T00:57:59;6.57;;;3.30;;
52320;SDS011;38261;54.090;13.382;2023-09-19T00:59:22;7.03;;;3.50;;
52320;SDS011;38261;54.090;13.382;2023-09-19T01:00:46;6.10;;;3.07;;
52320;SDS011;38261;54.090;13.382;2023-09-19T01:02:12;4.03;;;2.40;;
52320;SDS011;38261;54.090;13.382;2023-09-19T01:03:38;5.03;;;2.93;;
52320;SDS011;38261;54.090;13.382;2023-09-19T01:05:02;5.00;;;3.27;;
52320;SDS011;38261;54.090;13.382;2023-09-19T01:06:29;6.77;;;3.10;;
52320;SDS011;38261;54.090;13.382;2023-09-19T01:07:52;5.10;;;2.77;;
52320;SDS011;38261;54.090;13.382;2023-09-19T01:09:15;5.20;;;3.00;;
52320;SDS011;38261;54.090;13.382;2023-09-19T01:10:38;5.43;;;3.10;;
52320;SDS011;38261;54.090;13.382;2023-09-19T01:12:23;5.37;;;2.77;;
52320;SDS011;38261;54.090;13.382;2023-09-19T01:14:10;7.33;;;2.87;;
52320;SDS011;38261;54.090;13.382;2023-09-19T01:15:51;5.33;;;2.90;;
52320;SDS011;38261;54.090;13.382;2023-09-19T01:17:32;7.10;;;2.93;;
52320;SDS011;38261;54.090;13.382;2023-09-19T01:19:33;5.20;;;3.30;;
52320;SDS011;38261;54.090;13.382;2023-09-19T01:23:17;7.53;;;3.53;;
52320;SDS011;38261;54.090;13.382;2023-09-19T01:30:11;4.20;;;3.00;;
52320;SDS011;38261;54.090;13.382;2023-09-19T01:31:39;5.70;;;3.30;;
52320;SDS011;38261;54.090;13.382;2023-09-19T01:33:04;4.60;;;2.93;;
52320;SDS011;38261;54.090;13.382;2023-09-19T01:34:50;7.70;;;3.20;;
52320;SDS011;38261;54.090;13.382;2023-09-19T01:36:11;9.30;;;3.60;;
52320;SDS011;38261;54.090;13.382;2023-09-19T01:37:33;4.30;;;3.00;;
52320;SDS011;38261;54.090;13.382;2023-09-19T01:38:57;3.50;;;2.40;;
52320;SDS011;38261;54.090;13.382;2023-09-19T01:40:27;5.73;;;3.00;;
52320;SDS011;38261;54.090;13.382;2023-09-19T01:43:17;6.43;;;2.90;;
52320;SDS011;38261;54.090;13.382;2023-09-19T01:44:57;5.20;;;2.90;;
52320;SDS011;38261;54.090;13.382;2023-09-19T01:46:26;5.47;;;3.50;;
52320;SDS011;38261;54.090;13.382;2023-09-19T01:47:56;3.87;;;2.80;;
52320;SDS011;38261;54.090;13.382;2023-09-19T01:49:33;6.97;;;3.37;;
52320;SDS011;38261;54.090;13.382;2023-09-19T01:53:07;3.87;;;2.53;;
52320;SDS011;38261;54.090;13.382;2023-09-19T01:54:46;3.27;;;2.47;;
52320;SDS011;38261;54.090;13.382;2023-09-19T01:56:14;6.13;;;2.40;;
52320;SDS011;38261;54.090;13.382;2023-09-19T01:59:41;3.40;;;3.10;;
52320;SDS011;38261;54.090;13.382;2023-09-19T02:01:09;5.70;;;2.73;;
52320;SDS011;38261;54.090;13.382;2023-09-19T02:02:36;11.13;;;3.10;;
52320;SDS011;38261;54.090;13.382;2023-09-19T02:04:03;3.20;;;2.30;;
52320;SDS011;38261;54.090;13.382;2023-09-19T02:05:26;11.40;;;2.60;;
52320;SDS011;38261;54.090;13.382;2023-09-19T02:06:51;8.27;;;3.07;;
52320;SDS011;38261;54.090;13.382;2023-09-19T02:08:16;3.17;;;2.70;;
52320;SDS011;38261;54.090;13.382;2023-09-19T02:09:39;4.07;;;2.60;;
52320;SDS011;38261;54.090;13.382;2023-09-19T02:11:04;9.13;;;2.80;;
52320;SDS011;38261;54.090;13.382;2023-09-19T02:12:27;6.00;;;2.90;;
52320;SDS011;38261;54.090;13.382;2023-09-19T02:13:50;7.33;;;3.30;;
52320;SDS011;38261;54.090;13.382;2023-09-19T02:15:16;5.70;;;2.67;;
52320;SDS011;38261;54.090;13.382;2023-09-19T02:16:38;3.50;;;2.40;;
52320;SDS011;38261;54.090;13.382;2023-09-19T02:18:01;2.53;;;2.10;;
52320;SDS011;38261;54.090;13.382;2023-09-19T02:19:25;2.80;;;2.47;;
52320;SDS011;38261;54.090;13.382;2023-09-19T02:20:47;3.20;;;1.97;;
52320;SDS011;38261;54.090;13.382;2023-09-19T02:22:09;5.47;;;2.37;;
52320;SDS011;38261;54.090;13.382;2023-09-19T02:23:32;5.00;;;2.23;;
52320;SDS011;38261;54.090;13.382;2023-09-19T02:24:54;5.33;;;2.07;;
52320;SDS011;38261;54.090;13.382;2023-09-19T02:26:20;4.30;;;2.50;;
52320;SDS011;38261;54.090;13.382;2023-09-19T02:27:42;5.50;;;2.30;;
52320;SDS011;38261;54.090;13.382;2023-09-19T02:29:04;3.00;;;1.70;;
52320;SDS011;38261;54.090;13.382;2023-09-19T02:30:26;3.07;;;1.97;;
52320;SDS011;38261;54.090;13.382;2023-09-19T02:31:48;4.70;;;1.90;;
52320;SDS011;38261;54.090;13.382;2023-09-19T02:33:11;2.97;;;2.00;;
52320;SDS011;38261;54.090;13.382;2023-09-19T02:34:33;4.70;;;2.40;;
52320;SDS011;38261;54.090;13.382;2023-09-19T02:35:58;5.30;;;2.20;;
52320;SDS011;38261;54.090;13.382;2023-09-19T02:37:20;2.83;;;2.30;;
52320;SDS011;38261;54.090;13.382;2023-09-19T02:38:43;4.57;;;1.80;;
52320;SDS011;38261;54.090;13.382;2023-09-19T02:40:06;4.63;;;1.80;;
52320;SDS011;38261;54.090;13.382;2023-09-19T02:41:40;3.70;;;1.80;;
52320;SDS011;38261;54.090;13.382;2023-09-19T02:43:03;4.93;;;2.13;;
52320;SDS011;38261;54.090;13.382;2023-09-19T02:44:26;5.00;;;1.80;;
52320;SDS011;38261;54.090;13.382;2023-09-19T02:45:49;3.50;;;2.23;;
52320;SDS011;38261;54.090;13.382;2023-09-19T02:47:12;5.23;;;1.80;;
52320;SDS011;38261;54.090;13.382;2023-09-19T02:48:36;3.90;;;2.47;;
52320;SDS011;38261;54.090;13.382;2023-09-19T02:49:58;4.30;;;2.27;;
52320;SDS011;38261;54.090;13.382;2023-09-19T02:51:21;3.70;;;2.20;;
52320;SDS011;38261;54.090;13.382;2023-09-19T02:52:43;3.80;;;1.90;;
52320;SDS011;38261;54.090;13.382;2023-09-19T02:54:07;3.10;;;1.80;;
52320;SDS011;38261;54.090;13.382;2023-09-19T02:55:29;3.20;;;1.60;;
52320;SDS011;38261;54.090;13.382;2023-09-19T02:56:51;6.30;;;1.70;;
52320;SDS011;38261;54.090;13.382;2023-09-19T02:58:15;3.13;;;1.60;;
52320;SDS011;38261;54.090;13.382;2023-09-19T02:59:37;3.10;;;1.87;;
52320;SDS011;38261;54.090;13.382;2023-09-19T03:01:05;4.07;;;1.77;;
52320;SDS011;38261;54.090;13.382;2023-09-19T03:02:30;3.33;;;1.67;;
52320;SDS011;38261;54.090;13.382;2023-09-19T03:03:54;2.70;;;1.83;;
52320;SDS011;38261;54.090;13.382;2023-09-19T03:05:16;7.57;;;1.70;;
52320;SDS011;38261;54.090;13.382;2023-09-19T03:06:39;4.10;;;1.80;;
52320;SDS011;38261;54.090;13.382;2023-09-19T03:08:02;3.83;;;1.80;;
52320;SDS011;38261;54.090;13.382;2023-09-19T03:09:24;3.57;;;1.70;;
52320;SDS011;38261;54.090;13.382;2023-09-19T03:10:46;3.67;;;1.50;;
52320;SDS011;38261;54.090;13.382;2023-09-19T03:12:12;5.73;;;1.73;;
52320;SDS011;38261;54.090;13.382;2023-09-19T03:13:37;2.97;;;1.80;;
52320;SDS011;38261;54.090;13.382;2023-09-19T03:15:00;2.60;;;1.50;;
52320;SDS011;38261;54.090;13.382;2023-09-19T03:16:22;6.97;;;2.13;;
52320;SDS011;38261;54.090;13.382;2023-09-19T03:17:45;3.40;;;1.50;;
52320;SDS011;38261;54.090;13.382;2023-09-19T03:19:09;4.17;;;1.73;;
52320;SDS011;38261;54.090;13.382;2023-09-19T03:20:32;7.40;;;1.80;;
52320;SDS011;38261;54.090;13.382;2023-09-19T03:21:54;4.60;;;1.73;;
52320;SDS011;38261;54.090;13.382;2023-09-19T03:23:16;2.70;;;1.73;;
52320;SDS011;38261;54.090;13.382;2023-09-19T03:24:38;4.27;;;1.70;;
52320;SDS011;38261;54.090;13.382;2023-09-19T03:26:01;2.27;;;1.33;;
52320;SDS011;38261;54.090;13.382;2023-09-19T03:27:23;4.10;;;1.57;;
52320;SDS011;38261;54.090;13.382;2023-09-19T03:28:45;5.87;;;1.43;;
52320;SDS011;38261;54.090;13.382;2023-09-19T03:30:08;5.67;;;2.10;;
52320;SDS011;38261;54.090;13.382;2023-09-19T03:31:31;4.60;;;2.10;;
52320;SDS011;38261;54.090;13.382;2023-09-19T03:32:53;2.67;;;1.50;;
52320;SDS011;38261;54.090;13.382;2023-09-19T03:34:15;2.87;;;1.60;;
52320;SDS011;38261;54.090;13.382;2023-09-19T03:35:39;4.77;;;1.70;;
52320;SDS011;38261;54.090;13.382;2023-09-19T03:37:01;7.50;;;2.20;;
52320;SDS011;38261;54.090;13.382;2023-09-19T03:38:24;3.57;;;1.70;;
52320;SDS011;38261;54.090;13.382;2023-09-19T03:39:50;4.20;;;2.13;;
52320;SDS011;38261;54.090;13.382;2023-09-19T03:41:12;4.27;;;1.83;;
52320;SDS011;38261;54.090;13.382;2023-09-19T03:42:39;3.27;;;1.70;;
52320;SDS011;38261;54.090;13.382;2023-09-19T03:44:02;3.63;;;1.43;;
52320;SDS011;38261;54.090;13.382;2023-09-19T03:45:24;3.00;;;1.77;;
52320;SDS011;38261;54.090;13.382;2023-09-19T03:46:46;6.57;;;1.93;;
52320;SDS011;38261;54.090;13.382;2023-09-19T03:48:09;2.80;;;1.30;;
52320;SDS011;38261;54.090;13.382;2023-09-19T03:49:32;3.43;;;1.80;;
52320;SDS011;38261;54.090;13.382;2023-09-19T03:50:55;3.70;;;1.60;;
52320;SDS011;38261;54.090;13.382;2023-09-19T03:52:18;5.03;;;1.70;;
52320;SDS011;38261;54.090;13.382;2023-09-19T03:53:40;2.30;;;1.60;;
52320;SDS011;38261;54.090;13.382;2023-09-19T03:55:02;6.13;;;3.00;;
52320;SDS011;38261;54.090;13.382;2023-09-19T03:56:25;4.70;;;1.60;;
52320;SDS011;38261;54.090;13.382;2023-09-19T03:57:48;2.63;;;1.63;;
52320;SDS011;38261;54.090;13.382;2023-09-19T03:59:11;2.43;;;1.47;;
52320;SDS011;38261;54.090;13.382;2023-09-19T04:00:33;3.10;;;1.50;;
52320;SDS011;38261;54.090;13.382;2023-09-19T04:02:00;3.97;;;1.93;;
52320;SDS011;38261;54.090;13.382;2023-09-19T04:03:22;4.30;;;1.70;;
52320;SDS011;38261;54.090;13.382;2023-09-19T04:04:44;5.83;;;1.80;;
52320;SDS011;38261;54.090;13.382;2023-09-19T04:06:06;2.90;;;1.77;;
52320;SDS011;38261;54.090;13.382;2023-09-19T04:07:29;5.90;;;1.73;;
52320;SDS011;38261;54.090;13.382;2023-09-19T04:08:51;3.70;;;1.97;;
52320;SDS011;38261;54.090;13.382;2023-09-19T04:10:13;3.10;;;1.70;;
52320;SDS011;38261;54.090;13.382;2023-09-19T04:11:36;3.87;;;2.00;;
52320;SDS011;38261;54.090;13.382;2023-09-19T04:12:58;6.20;;;1.80;;
52320;SDS011;38261;54.090;13.382;2023-09-19T04:14:20;5.40;;;2.00;;
52320;SDS011;38261;54.090;13.382;2023-09-19T04:15:42;5.27;;;1.80;;
52320;SDS011;38261;54.090;13.382;2023-09-19T04:17:04;2.00;;;1.60;;
52320;SDS011;38261;54.090;13.382;2023-09-19T04:18:30;3.27;;;1.93;;
52320;SDS011;38261;54.090;13.382;2023-09-19T04:19:54;9.20;;;2.00;;
52320;SDS011;38261;54.090;13.382;2023-09-19T04:21:17;4.60;;;1.97;;
52320;SDS011;38261;54.090;13.382;2023-09-19T04:22:41;5.43;;;2.07;;
52320;SDS011;38261;54.090;13.382;2023-09-19T04:24:03;8.03;;;1.80;;
52320;SDS011;38261;54.090;13.382;2023-09-19T04:25:25;5.80;;;2.40;;
52320;SDS011;38261;54.090;13.382;2023-09-19T04:26:49;6.37;;;1.70;;
52320;SDS011;38261;54.090;13.382;2023-09-19T04:28:11;4.53;;;1.93;;
52320;SDS011;38261;54.090;13.382;2023-09-19T04:29:33;3.97;;;1.87;;
52320;SDS011;38261;54.090;13.382;2023-09-19T04:30:55;5.17;;;1.77;;
52320;SDS011;38261;54.090;13.382;2023-09-19T04:32:17;3.33;;;1.90;;
52320;SDS011;38261;54.090;13.382;2023-09-19T04:33:39;6.53;;;2.00;;
52320;SDS011;38261;54.090;13.382;2023-09-19T04:35:03;3.93;;;2.00;;
52320;SDS011;38261;54.090;13.382;2023-09-19T04:36:27;4.67;;;2.00;;
52320;SDS011;38261;54.090;13.382;2023-09-19T04:37:57;4.53;;;1.70;;
52320;SDS011;38261;54.090;13.382;2023-09-19T04:39:19;3.60;;;1.80;;
52320;SDS011;38261;54.090;13.382;2023-09-19T04:40:42;2.70;;;2.00;;
52320;SDS011;38261;54.090;13.382;2023-09-19T04:42:05;6.17;;;1.87;;
52320;SDS011;38261;54.090;13.382;2023-09-19T04:43:27;6.60;;;1.77;;
52320;SDS011;38261;54.090;13.382;2023-09-19T04:44:51;2.00;;;1.60;;
52320;SDS011;38261;54.090;13.382;2023-09-19T04:46:16;4.07;;;1.87;;
52320;SDS011;38261;54.090;13.382;2023-09-19T04:47:39;10.00;;;2.10;;
52320;SDS011;38261;54.090;13.382;2023-09-19T04:49:01;4.10;;;2.17;;
52320;SDS011;38261;54.090;13.382;2023-09-19T04:50:27;8.40;;;2.00;;
52320;SDS011;38261;54.090;13.382;2023-09-19T04:51:49;2.90;;;1.67;;
52320;SDS011;38261;54.090;13.382;2023-09-19T04:53:11;3.80;;;2.10;;
52320;SDS011;38261;54.090;13.382;2023-09-19T04:54:34;5.50;;;2.50;;
52320;SDS011;38261;54.090;13.382;2023-09-19T04:55:56;9.13;;;2.47;;
52320;SDS011;38261;54.090;13.382;2023-09-19T04:57:19;5.83;;;2.00;;
52320;SDS011;38261;54.090;13.382;2023-09-19T04:58:41;6.27;;;2.23;;
52320;SDS011;38261;54.090;13.382;2023-09-19T05:00:04;6.50;;;2.03;;
52320;SDS011;38261;54.090;13.382;2023-09-19T05:01:33;4.77;;;2.27;;
52320;SDS011;38261;54.090;13.382;2023-09-19T05:02:56;6.10;;;2.00;;
52320;SDS011;38261;54.090;13.382;2023-09-19T05:04:19;3.77;;;2.07;;
52320;SDS011;38261;54.090;13.382;2023-09-19T05:05:42;3.20;;;2.20;;
52320;SDS011;38261;54.090;13.382;2023-09-19T05:07:04;3.40;;;2.00;;
52320;SDS011;38261;54.090;13.382;2023-09-19T05:08:26;4.80;;;2.00;;
52320;SDS011;38261;54.090;13.382;2023-09-19T05:09:49;3.83;;;1.77;;
52320;SDS011;38261;54.090;13.382;2023-09-19T05:11:11;5.23;;;2.13;;
52320;SDS011;38261;54.090;13.382;2023-09-19T05:12:34;11.47;;;3.27;;
52320;SDS011;38261;54.090;13.382;2023-09-19T05:13:57;4.03;;;2.23;;
52320;SDS011;38261;54.090;13.382;2023-09-19T05:15:23;6.00;;;2.27;;
52320;SDS011;38261;54.090;13.382;2023-09-19T05:16:45;3.03;;;2.07;;
52320;SDS011;38261;54.090;13.382;2023-09-19T05:18:08;5.53;;;2.30;;
52320;SDS011;38261;54.090;13.382;2023-09-19T05:19:30;5.40;;;2.00;;
52320;SDS011;38261;54.090;13.382;2023-09-19T05:20:52;5.10;;;1.90;;
52320;SDS011;38261;54.090;13.382;2023-09-19T05:22:16;4.07;;;2.30;;
52320;SDS011;38261;54.090;13.382;2023-09-19T05:23:40;6.70;;;2.20;;
52320;SDS011;38261;54.090;13.382;2023-09-19T05:25:03;7.97;;;3.13;;
52320;SDS011;38261;54.090;13.382;2023-09-19T05:26:26;2.83;;;2.40;;
52320;SDS011;38261;54.090;13.382;2023-09-19T05:27:48;5.53;;;2.00;;
52320;SDS011;38261;54.090;13.382;2023-09-19T05:29:12;4.80;;;2.30;;
52320;SDS011;38261;54.090;13.382;2023-09-19T05:30:34;5.77;;;2.13;;
52320;SDS011;38261;54.090;13.382;2023-09-19T05:31:58;4.80;;;2.20;;
52320;SDS011;38261;54.090;13.382;2023-09-19T05:33:20;4.93;;;2.37;;
52320;SDS011;38261;54.090;13.382;2023-09-19T05:34:42;5.50;;;2.23;;
52320;SDS011;38261;54.090;13.382;2023-09-19T05:36:04;4.83;;;2.30;;
52320;SDS011;38261;54.090;13.382;2023-09-19T05:37:26;5.97;;;2.40;;
52320;SDS011;38261;54.090;13.382;2023-09-19T05:38:49;5.50;;;2.33;;
52320;SDS011;38261;54.090;13.382;2023-09-19T05:40:14;6.17;;;2.30;;
52320;SDS011;38261;54.090;13.382;2023-09-19T05:41:37;4.47;;;2.30;;
52320;SDS011;38261;54.090;13.382;2023-09-19T05:43:01;4.50;;;2.30;;
52320;SDS011;38261;54.090;13.382;2023-09-19T05:44:27;3.63;;;2.10;;
52320;SDS011;38261;54.090;13.382;2023-09-19T05:45:49;3.13;;;2.00;;
52320;SDS011;38261;54.090;13.382;2023-09-19T05:47:13;2.63;;;1.43;;
52320;SDS011;38261;54.090;13.382;2023-09-19T05:48:35;6.87;;;2.07;;
52320;SDS011;38261;54.090;13.382;2023-09-19T05:49:57;4.20;;;2.50;;
52320;SDS011;38261;54.090;13.382;2023-09-19T05:51:21;5.20;;;2.30;;
52320;SDS011;38261;54.090;13.382;2023-09-19T05:52:47;5.57;;;2.40;;
52320;SDS011;38261;54.090;13.382;2023-09-19T05:54:14;4.33;;;1.90;;
52320;SDS011;38261;54.090;13.382;2023-09-19T05:55:36;4.00;;;2.60;;
52320;SDS011;38261;54.090;13.382;2023-09-19T05:56:58;2.63;;;2.07;;
52320;SDS011;38261;54.090;13.382;2023-09-19T05:58:24;2.47;;;2.27;;
52320;SDS011;38261;54.090;13.382;2023-09-19T05:59:46;5.10;;;2.20;;
52320;SDS011;38261;54.090;13.382;2023-09-19T06:01:09;4.93;;;2.80;;
52320;SDS011;38261;54.090;13.382;2023-09-19T06:02:31;4.63;;;2.47;;
52320;SDS011;38261;54.090;13.382;2023-09-19T06:03:54;2.00;;;1.80;;
52320;SDS011;38261;54.090;13.382;2023-09-19T06:05:17;6.33;;;3.40;;
52320;SDS011;38261;54.090;13.382;2023-09-19T06:06:39;10.90;;;2.87;;
52320;SDS011;38261;54.090;13.382;2023-09-19T06:08:01;7.03;;;2.30;;
52320;SDS011;38261;54.090;13.382;2023-09-19T06:09:29;4.57;;;2.20;;
52320;SDS011;38261;54.090;13.382;2023-09-19T06:10:53;7.53;;;3.20;;
52320;SDS011;38261;54.090;13.382;2023-09-19T06:12:15;6.97;;;2.57;;
52320;SDS011;38261;54.090;13.382;2023-09-19T06:13:38;3.60;;;1.93;;
52320;SDS011;38261;54.090;13.382;2023-09-19T06:15:01;6.27;;;2.80;;
52320;SDS011;38261;54.090;13.382;2023-09-19T06:16:23;3.33;;;2.27;;
52320;SDS011;38261;54.090;13.382;2023-09-19T06:17:49;6.50;;;2.03;;
52320;SDS011;38261;54.090;13.382;2023-09-19T06:19:20;2.97;;;2.20;;
52320;SDS011;38261;54.090;13.382;2023-09-19T06:20:46;4.70;;;2.30;;
52320;SDS011;38261;54.090;13.382;2023-09-19T06:22:08;3.83;;;2.37;;
52320;SDS011;38261;54.090;13.382;2023-09-19T06:23:31;4.30;;;2.30;;
52320;SDS011;38261;54.090;13.382;2023-09-19T06:24:53;4.00;;;2.20;;
52320;SDS011;38261;54.090;13.382;2023-09-19T06:26:16;7.10;;;2.57;;
52320;SDS011;38261;54.090;13.382;2023-09-19T06:27:39;7.50;;;2.77;;
52320;SDS011;38261;54.090;13.382;2023-09-19T06:29:04;3.73;;;2.13;;
52320;SDS011;38261;54.090;13.382;2023-09-19T06:30:29;5.60;;;2.70;;
52320;SDS011;38261;54.090;13.382;2023-09-19T06:31:52;5.23;;;2.27;;
52320;SDS011;38261;54.090;13.382;2023-09-19T06:33:14;8.57;;;1.83;;
52320;SDS011;38261;54.090;13.382;2023-09-19T06:34:40;5.07;;;2.47;;
52320;SDS011;38261;54.090;13.382;2023-09-19T06:36:05;4.97;;;2.27;;
52320;SDS011;38261;54.090;13.382;2023-09-19T06:37:28;5.70;;;2.60;;
52320;SDS011;38261;54.090;13.382;2023-09-19T06:38:51;3.37;;;2.33;;
52320;SDS011;38261;54.090;13.382;2023-09-19T06:40:13;4.47;;;2.33;;
52320;SDS011;38261;54.090;13.382;2023-09-19T06:41:37;9.57;;;2.53;;
52320;SDS011;38261;54.090;13.382;2023-09-19T06:43:00;7.60;;;2.43;;
52320;SDS011;38261;54.090;13.382;2023-09-19T06:44:26;3.87;;;2.00;;
52320;SDS011;38261;54.090;13.382;2023-09-19T06:45:48;7.90;;;2.10;;
52320;SDS011;38261;54.090;13.382;2023-09-19T06:47:10;5.83;;;2.60;;
52320;SDS011;38261;54.090;13.382;2023-09-19T06:48:32;3.97;;;2.20;;
52320;SDS011;38261;54.090;13.382;2023-09-19T06:49:55;4.70;;;1.90;;
52320;SDS011;38261;54.090;13.382;2023-09-19T06:51:17;6.67;;;2.20;;
52320;SDS011;38261;54.090;13.382;2023-09-19T06:52:40;5.07;;;2.00;;
52320;SDS011;38261;54.090;13.382;2023-09-19T06:54:03;5.17;;;2.10;;
52320;SDS011;38261;54.090;13.382;2023-09-19T06:55:26;3.50;;;2.20;;
52320;SDS011;38261;54.090;13.382;2023-09-19T06:56:50;6.50;;;2.30;;
52320;SDS011;38261;54.090;13.382;2023-09-19T06:58:12;2.73;;;2.10;;
52320;SDS011;38261;54.090;13.382;2023-09-19T06:59:34;5.93;;;1.93;;
52320;SDS011;38261;54.090;13.382;2023-09-19T07:00:57;3.57;;;1.80;;
52320;SDS011;38261;54.090;13.382;2023-09-19T07:02:20;2.90;;;2.17;;
52320;SDS011;38261;54.090;13.382;2023-09-19T07:03:43;3.70;;;2.00;;
52320;SDS011;38261;54.090;13.382;2023-09-19T07:05:07;6.60;;;1.87;;
52320;SDS011;38261;54.090;13.382;2023-09-19T07:06:29;6.80;;;2.17;;
52320;SDS011;38261;54.090;13.382;2023-09-19T07:07:51;5.53;;;2.30;;
52320;SDS011;38261;54.090;13.382;2023-09-19T07:09:13;7.73;;;2.63;;
52320;SDS011;38261;54.090;13.382;2023-09-19T07:10:36;5.00;;;2.20;;
52320;SDS011;38261;54.090;13.382;2023-09-19T07:11:58;5.20;;;2.23;;
52320;SDS011;38261;54.090;13.382;2023-09-19T07:13:20;5.10;;;2.07;;
52320;SDS011;38261;54.090;13.382;2023-09-19T07:14:42;5.30;;;2.30;;
52320;SDS011;38261;54.090;13.382;2023-09-19T07:16:05;2.73;;;1.70;;
52320;SDS011;38261;54.090;13.382;2023-09-19T07:17:27;5.10;;;1.80;;
52320;SDS011;38261;54.090;13.382;2023-09-19T07:18:51;5.10;;;2.20;;
52320;SDS011;38261;54.090;13.382;2023-09-19T07:20:13;5.73;;;1.97;;
52320;SDS011;38261;54.090;13.382;2023-09-19T07:21:37;3.53;;;1.80;;
52320;SDS011;38261;54.090;13.382;2023-09-19T07:23:03;8.90;;;3.00;;
52320;SDS011;38261;54.090;13.382;2023-09-19T07:24:25;4.93;;;1.90;;
52320;SDS011;38261;54.090;13.382;2023-09-19T07:25:50;12.40;;;2.87;;
52320;SDS011;38261;54.090;13.382;2023-09-19T07:27:12;12.40;;;2.50;;
52320;SDS011;38261;54.090;13.382;2023-09-19T07:28:35;8.30;;;2.23;;
52320;SDS011;38261;54.090;13.382;2023-09-19T07:29:58;3.03;;;1.60;;
52320;SDS011;38261;54.090;13.382;2023-09-19T07:31:20;11.93;;;2.23;;
52320;SDS011;38261;54.090;13.382;2023-09-19T07:32:44;4.93;;;2.07;;
52320;SDS011;38261;54.090;13.382;2023-09-19T07:34:06;5.60;;;2.50;;
52320;SDS011;38261;54.090;13.382;2023-09-19T07:35:30;6.20;;;1.90;;
52320;SDS011;38261;54.090;13.382;2023-09-19T07:36:52;6.60;;;1.50;;
52320;SDS011;38261;54.090;13.382;2023-09-19T07:38:14;4.63;;;1.80;;
52320;SDS011;38261;54.090;13.382;2023-09-19T07:39:37;7.47;;;1.93;;
52320;SDS011;38261;54.090;13.382;2023-09-19T07:41:02;6.67;;;2.20;;
52320;SDS011;38261;54.090;13.382;2023-09-19T07:42:25;6.73;;;2.33;;
52320;SDS011;38261;54.090;13.382;2023-09-19T07:43:47;3.37;;;1.80;;
52320;SDS011;38261;54.090;13.382;2023-09-19T07:45:10;6.27;;;1.90;;
52320;SDS011;38261;54.090;13.382;2023-09-19T07:46:39;4.60;;;1.70;;
52320;SDS011;38261;54.090;13.382;2023-09-19T07:48:01;6.17;;;2.10;;
52320;SDS011;38261;54.090;13.382;2023-09-19T07:49:26;5.23;;;2.10;;
52320;SDS011;38261;54.090;13.382;2023-09-19T07:50:48;6.37;;;1.97;;
52320;SDS011;38261;54.090;13.382;2023-09-19T07:52:11;11.17;;;2.47;;
52320;SDS011;38261;54.090;13.382;2023-09-19T07:53:36;8.27;;;2.07;;
52320;SDS011;38261;54.090;13.382;2023-09-19T07:54:59;9.67;;;2.50;;
52320;SDS011;38261;54.090;13.382;2023-09-19T07:56:23;6.97;;;1.80;;
52320;SDS011;38261;54.090;13.382;2023-09-19T07:57:47;6.80;;;2.10;;
52320;SDS011;38261;54.090;13.382;2023-09-19T07:59:09;7.53;;;2.33;;
52320;SDS011;38261;54.090;13.382;2023-09-19T08:00:33;8.03;;;1.70;;
52320;SDS011;38261;54.090;13.382;2023-09-19T08:01:56;7.40;;;2.43;;
52320;SDS011;38261;54.090;13.382;2023-09-19T08:03:19;5.03;;;1.73;;
52320;SDS011;38261;54.090;13.382;2023-09-19T08:04:42;12.33;;;1.70;;
52320;SDS011;38261;54.090;13.382;2023-09-19T08:06:07;6.03;;;2.17;;
52320;SDS011;38261;54.090;13.382;2023-09-19T08:07:29;4.90;;;1.53;;
52320;SDS011;38261;54.090;13.382;2023-09-19T08:08:52;6.93;;;1.80;;
52320;SDS011;38261;54.090;13.382;2023-09-19T08:10:15;11.27;;;1.80;;
52320;SDS011;38261;54.090;13.382;2023-09-19T08:11:41;10.13;;;1.97;;
52320;SDS011;38261;54.090;13.382;2023-09-19T08:13:03;7.67;;;1.97;;
52320;SDS011;38261;54.090;13.382;2023-09-19T08:14:26;6.10;;;1.60;;
52320;SDS011;38261;54.090;13.382;2023-09-19T08:15:48;5.07;;;1.67;;
52320;SDS011;38261;54.090;13.382;2023-09-19T08:17:10;5.50;;;1.77;;
52320;SDS011;38261;54.090;13.382;2023-09-19T08:18:33;4.67;;;1.30;;
52320;SDS011;38261;54.090;13.382;2023-09-19T08:19:56;7.27;;;2.03;;
52320;SDS011;38261;54.090;13.382;2023-09-19T08:21:18;4.70;;;2.00;;
52320;SDS011;38261;54.090;13.382;2023-09-19T08:22:41;8.67;;;1.60;;
52320;SDS011;38261;54.090;13.382;2023-09-19T08:24:09;7.60;;;2.13;;
52320;SDS011;38261;54.090;13.382;2023-09-19T08:25:31;13.20;;;2.00;;
52320;SDS011;38261;54.090;13.382;2023-09-19T08:26:54;9.03;;;1.80;;
52320;SDS011;38261;54.090;13.382;2023-09-19T08:28:17;9.73;;;2.03;;
52320;SDS011;38261;54.090;13.382;2023-09-19T08:29:44;7.43;;;1.50;;
52320;SDS011;38261;54.090;13.382;2023-09-19T08:31:06;7.70;;;1.90;;